aviador You're here:

GMMI Decoded Metar

ESSADOUIRA in MOROCCO
Report Time2017-10-21 15:00:00
UTC Time2017-10-21 15:30:14
Flight Rules vfr VFR
Wind010° at 17 kt
W.Decomp.*RWY 34: 14.3 kt HW 9.3 kt RCW
W.Rank010° ranks 9
Current wind is above 010° avg. (10.7)
Visibility8000 m
Phenomena:N/A
Clouds:N/A
Expected CloudBase > 4,800 ft AGL from Temp-Dew spread
CeilingNone
Temp30°C (ISA +15)
Dew Point18°C (49% RH)
Heat Index30.9°C
AAT26.7°C
QNH1018 hPa
Density Alt1,857 ft
Elevation26 ft
Report Wrong Elevation
Raw Report
METAR GMMI 211500Z 01017KT 8000 NSC 30/18 Q1018 NOSIG=

Extra information for GMMI:More info

Metar Taf Metar & Taf Last 4 Metars F.Rules Stats Wind Profile Meteogram Temp Stats Airport Information Weather charts Add Link Nearby VenuesMetar ALERT Operation Metar Decoded Social comments